Telford, PA

11:46 PM EST on January 26, 2015 (GMT -0500)
Elroy | Change Station
CLOSE
Current Station
Personal Weather Station
Location: Souderton, PA
Elevation: 358 ft
Nearby Weather Stations
Active Advisory: Winter Storm Warning Active Notice: Public Information Statement

Elev 358 ft 40.28 °N, 75.33 °W | Updated 7 minutes ago

Overcast
Overcast
23.7 °F
Feels Like 17 °F
N
5.0
Wind Variable Wind from NE
Gusts 11.0 mph

Today
High -- | Low -- °F
--% Chance of Precip.
Yesterday
High -- | Low -- °F
Precip. -- in
7:16 AM 5:12 PM
Waxing Crescent, 50% visible
Pressure 29.74 in
Visibility 10.0 miles
Clouds Overcast 3000 ft
Windchill 17 °F
Dew Point 19 °F
Humidity 83%
Rainfall 0.00 in
Snow Depth Not available.
UV 0 out of 12
Pollen .10 out of 12
Air Quality Not available.
Flu Activity Not available.
SPECI KPTW 270435Z AUTO 36007KT 10SM OVC030 M04/M08 A2974 RMK AO2 T10441083

More Conditions Fewer Conditions

Pressure 29.74 in
Visibility 10.0 miles
Clouds Overcast 3000 ft
Windchill 17 °F
Dew Point 19 °F
Humidity 83%
Rainfall 0.00 in
Snow Depth Not available.
UV 0 out of 12
Pollen .10 out of 12
Air Quality Not available.
Flu Activity Not available.
SPECI KPTW 270435Z AUTO 36007KT 10SM OVC030 M04/M08 A2974 RMK AO2 T10441083

More Conditions Fewer Conditions

10-Day Weather Forecast

Almanac

Astronomy

Jan. 26, 2015 Rise Set
Actual Time
Civil Twilight
Nautical Twilight
Astronomical Twilight
Moon
Length of Visible Light
Length of Day
Tomorrow will be .
, % of the Moon is Illuminated

Today's Extremes

State Highs State Lows

Community

WunderPhotos

Upload Photos

1,790,530 photos uploaded!

WunderBlogs® & News

Nearby

Air Quality

  Air Quality AQ Index Pollutant
Not available.

Snow Depth

Station Depth Elevation

Earthquake Activity

City Distance Mag. Time & Date
Minimum magnitude displayed is 2.5.

Coastal Water Temperatures

Place Temperature

Nearby Weather Stations